Mountain Home, Wyoming
Current Conditions -  °F | °C
As of 1:07 PM on Monday 24 Nov 2014 (Local Time) from KLAR Reporting Station
Light Snow Light Snow  
Wind Chill:   Ceiling: 2700
Heat Index: 25°   Visibility: 2.5mi
Dew Point: 17°   Wind: 31mph
Humidity: 72%   Direction: 310°NW
Pressure: 29.99"   Gusts: 43mph
Location:  41.2601°N, 105.565°W
Report Text: KLAR 242007Z AUTO 31027G37KT 2 1/2SM -SN SCT020 BKN027 OVC034 M04/M08 A2999 RMK AO2 PK WND 32037/2005 P0000 T10391083
Loading
Personal Weather Stations






























Interactive Weather Map New forecast layout! Learn more

10-Day Weather Forecast

Advertisements
Track Severe Weather on mobile